Time;durP1;ratioP1;P1;durP2;ratioP2;P2;SDS_P1;SDS_P2;PMS_P1;PMS_P2;Temp;Humidity;BMP_temperature;BMP_pressure;BME280_temperature;BME280_humidity;BME280_pressure;Samples;Min_cycle;Max_cycle;Signal;HPM_P1;HPM_P2
2021/12/26 00:00:11;;;;;;;114.70;63.50;;;;;;;3.06;91.47;99236.63;5092260;28;20202;-69
2021/12/26 00:02:39;;;;;;;113.37;64.07;;;;;;;3.10;91.30;99230.88;5092214;28;20514;-70
2021/12/26 00:05:08;;;;;;;113.30;61.37;;;;;;;3.18;90.11;99238.81;5092225;28;20276;-68
2021/12/26 00:07:35;;;;;;;109.77;60.03;;;;;;;3.21;89.66;99243.75;5091883;28;20480;-68
2021/12/26 00:10:04;;;;;;;109.60;59.40;;;;;;;3.22;88.87;99240.13;5093078;28;20291;-70
2021/12/26 00:12:31;;;;;;;110.63;60.50;;;;;;;3.23;89.78;99251.47;5092222;28;20191;-70
2021/12/26 00:14:58;;;;;;;103.50;57.93;;;;;;;3.20;88.27;99246.53;5093001;28;20441;-70
2021/12/26 00:17:24;;;;;;;109.87;57.47;;;;;;;3.00;89.08;99245.91;5092554;28;20444;-70
2021/12/26 00:19:53;;;;;;;111.00;59.23;;;;;;;2.99;90.42;99259.19;5092680;28;20195;-69
2021/12/26 00:22:19;;;;;;;111.50;58.30;;;;;;;3.01;90.24;99268.53;5092040;28;20506;-69
2021/12/26 00:24:46;;;;;;;109.97;59.00;;;;;;;3.02;91.02;99258.88;5091994;28;20445;-69
2021/12/26 00:27:13;;;;;;;107.93;59.10;;;;;;;3.08;90.62;99259.09;5094933;28;20983;-69
2021/12/26 00:29:40;;;;;;;114.00;59.97;;;;;;;3.12;90.43;99260.44;5095571;28;21013;-70
2021/12/26 00:32:07;;;;;;;114.90;60.53;;;;;;;3.12;89.39;99249.09;5096523;28;20482;-69
2021/12/26 00:34:35;;;;;;;111.97;61.53;;;;;;;3.15;89.37;99254.03;5095858;28;20888;-70
2021/12/26 00:37:03;;;;;;;118.60;62.20;;;;;;;3.16;88.86;99261.75;5095768;28;20472;-70
2021/12/26 00:39:30;;;;;;;112.00;61.13;;;;;;;3.18;88.58;99251.91;5095884;28;20944;-69
2021/12/26 00:41:57;;;;;;;114.27;60.97;;;;;;;3.18;88.91;99262.41;5096028;28;20432;-70
2021/12/26 00:44:23;;;;;;;115.40;61.40;;;;;;;3.13;88.16;99259.44;5096976;28;20449;-70
2021/12/26 00:46:53;;;;;;;109.37;60.27;;;;;;;3.10;88.41;99259.75;5095821;28;20219;-70
2021/12/26 00:49:20;;;;;;;116.97;61.20;;;;;;;3.05;89.75;99256.75;5095811;28;20828;-70
2021/12/26 00:51:47;;;;;;;110.57;60.77;;;;;;;3.06;89.36;99260.22;5095974;28;20486;-69
2021/12/26 00:54:15;;;;;;;122.83;64.57;;;;;;;2.96;90.08;99265.56;5095680;28;20662;-70
2021/12/26 00:56:42;;;;;;;115.00;61.07;;;;;;;2.92;89.86;99258.16;5095289;28;20195;-69
2021/12/26 00:59:09;;;;;;;114.47;63.40;;;;;;;2.93;90.04;99254.53;5095871;28;20195;-70
2021/12/26 01:01:36;;;;;;;115.87;62.40;;;;;;;2.97;90.48;99256.72;5095726;28;20437;-69
2021/12/26 01:04:03;;;;;;;113.77;61.57;;;;;;;2.92;89.38;99248.50;5096365;28;20437;-70
2021/12/26 01:06:30;;;;;;;121.30;61.13;;;;;;;2.92;90.26;99258.97;5095614;28;20476;-70
2021/12/26 01:08:57;;;;;;;118.53;63.97;;;;;;;2.84;90.08;99251.06;5095259;28;20436;-70
2021/12/26 01:11:34;;;;;;;127.40;63.60;;;;;;;2.73;90.57;99248.66;5095245;28;20441;-70
2021/12/26 01:14:01;;;;;;;112.67;60.27;;;;;;;2.75;90.88;99246.72;5095817;28;20523;-69
2021/12/26 01:16:29;;;;;;;107.47;58.63;;;;;;;2.76;89.95;99248.38;5095922;28;20194;-69
2021/12/26 01:19:00;;;;;;;125.50;62.03;;;;;;;2.70;89.51;99251.59;5096036;28;20195;-69
2021/12/26 01:21:27;;;;;;;119.73;62.17;;;;;;;2.66;89.48;99239.75;5095199;28;20891;-69
2021/12/26 01:23:57;;;;;;;118.03;61.70;;;;;;;2.70;90.30;99237.66;5095140;28;20505;-69
2021/12/26 01:26:25;;;;;;;115.20;61.33;;;;;;;2.71;89.75;99229.66;5095207;28;20480;-68
2021/12/26 01:28:52;;;;;;;117.83;60.57;;;;;;;2.61;89.64;99225.47;5095185;28;20196;-68
2021/12/26 01:31:20;;;;;;;131.07;66.47;;;;;;;2.50;89.33;99226.53;5094756;28;20490;-69
2021/12/26 01:33:47;;;;;;;134.27;63.87;;;;;;;2.45;89.80;99239.25;5095119;28;20879;-69
2021/12/26 01:36:14;;;;;;;131.90;65.40;;;;;;;2.44;89.17;99237.63;5095001;28;20494;-69
2021/12/26 01:38:41;;;;;;;120.40;63.03;;;;;;;2.48;90.38;99220.63;5094260;28;20502;-70
2021/12/26 01:41:10;;;;;;;126.80;64.50;;;;;;;2.55;90.54;99219.03;5095132;28;20445;-70
2021/12/26 01:43:40;;;;;;;119.33;62.73;;;;;;;2.57;90.51;99226.75;5095019;28;20864;-70
2021/12/26 01:46:07;;;;;;;125.77;65.60;;;;;;;2.63;90.39;99232.22;5095404;28;20534;-70
2021/12/26 01:48:34;;;;;;;127.73;64.10;;;;;;;2.58;89.14;99216.09;5094881;28;20445;-69
2021/12/26 01:51:01;;;;;;;129.60;65.33;;;;;;;2.44;90.27;99216.66;5094349;28;20495;-70
2021/12/26 01:53:35;;;;;;;123.33;63.80;;;;;;;2.45;91.07;99223.53;5094826;28;20506;-69
2021/12/26 01:56:04;;;;;;;127.90;65.00;;;;;;;2.42;90.96;99212.53;5095003;28;20464;-69
2021/12/26 01:58:32;;;;;;;130.37;65.33;;;;;;;2.41;90.94;99206.47;5094431;28;20870;-69
2021/12/26 02:01:03;;;;;;;129.20;65.17;;;;;;;2.45;92.02;99196.53;5094665;28;20504;-69
2021/12/26 02:03:30;;;;;;;124.90;62.77;;;;;;;2.48;90.62;99202.28;5094977;28;20430;-69
2021/12/26 02:05:57;;;;;;;126.03;65.03;;;;;;;2.49;90.34;99209.16;5094165;28;20476;-69
2021/12/26 02:08:24;;;;;;;128.03;65.97;;;;;;;2.53;89.08;99210.50;5094237;28;21021;-69
2021/12/26 02:10:51;;;;;;;132.03;68.23;;;;;;;2.54;89.04;99212.16;5095109;28;20495;-69
2021/12/26 02:13:18;;;;;;;114.20;60.67;;;;;;;2.47;90.09;99211.13;5094463;28;20471;-69
2021/12/26 02:15:45;;;;;;;118.57;60.57;;;;;;;2.56;90.57;99212.81;5093856;28;20971;-69
2021/12/26 02:18:14;;;;;;;127.73;64.83;;;;;;;2.52;91.05;99214.09;5094334;28;20437;-69
2021/12/26 02:20:59;;;;;;;126.33;63.47;;;;;;;2.47;90.30;99216.34;5093831;28;20437;-69
2021/12/26 02:23:31;;;;;;;131.57;66.33;;;;;;;2.50;90.44;99221.31;5094010;28;20437;-69
2021/12/26 02:28:49;;;;;;;116.53;61.90;;;;;;;2.33;90.05;99227.38;5093971;28;20808;-69
2021/12/26 02:31:18;;;;;;;116.27;62.23;;;;;;;2.29;90.33;99228.63;5093672;28;20433;-69
2021/12/26 02:33:45;;;;;;;123.20;62.07;;;;;;;2.34;90.25;99226.41;5093984;28;20440;-69
2021/12/26 02:36:13;;;;;;;118.83;60.70;;;;;;;2.43;90.99;99220.25;5093856;28;20441;-69
2021/12/26 02:38:40;;;;;;;112.30;62.50;;;;;;;2.49;91.59;99208.34;5094429;28;20490;-69
2021/12/26 02:41:07;;;;;;;111.47;58.83;;;;;;;2.29;90.79;99212.91;5094091;28;20498;-69
2021/12/26 02:43:34;;;;;;;116.30;61.40;;;;;;;2.26;91.79;99218.47;5093832;28;20436;-69
2021/12/26 02:46:05;;;;;;;123.03;60.57;;;;;;;2.35;91.76;99214.13;5093450;28;20473;-69
2021/12/26 02:48:32;;;;;;;105.60;58.30;;;;;;;2.42;91.37;99223.03;5093960;28;20180;-69
2021/12/26 02:50:59;;;;;;;109.47;58.53;;;;;;;2.47;91.12;99211.13;5092875;28;20436;-69
2021/12/26 02:53:28;;;;;;;106.73;58.33;;;;;;;2.54;91.32;99221.81;5093727;28;20816;-69
2021/12/26 02:55:56;;;;;;;113.83;58.23;;;;;;;2.55;89.63;99219.03;5093690;28;20808;-69
2021/12/26 02:58:23;;;;;;;102.20;56.50;;;;;;;2.49;89.34;99217.03;5093207;28;20433;-69
2021/12/26 03:00:52;;;;;;;108.57;56.30;;;;;;;2.35;91.06;99219.34;5093482;28;20437;-69
2021/12/26 03:03:20;;;;;;;106.57;56.10;;;;;;;2.30;91.32;99201.47;5093054;28;20499;-69
2021/12/26 03:05:54;;;;;;;105.60;58.17;;;;;;;2.30;91.10;99200.66;5093969;28;20624;-69
2021/12/26 03:08:21;;;;;;;105.10;55.67;;;;;;;2.38;92.31;99193.69;5093117;28;20921;-69
2021/12/26 03:10:49;;;;;;;104.07;57.03;;;;;;;2.40;90.38;99194.34;5093657;28;20545;-69
2021/12/26 03:13:16;;;;;;;102.97;57.87;;;;;;;2.43;90.50;99199.28;5093228;28;20513;-70
2021/12/26 03:15:43;;;;;;;108.77;58.67;;;;;;;2.49;91.39;99198.66;5093616;28;20862;-69
2021/12/26 03:18:10;;;;;;;106.70;58.80;;;;;;;2.53;91.21;99194.78;5093523;28;20844;-69
2021/12/26 03:20:41;;;;;;;113.47;58.90;;;;;;;2.57;90.88;99201.34;5092812;28;20437;-69
2021/12/26 03:23:10;;;;;;;108.53;58.27;;;;;;;2.36;90.62;99200.03;5093057;28;20441;-71
2021/12/26 03:25:38;;;;;;;105.70;56.43;;;;;;;2.31;91.49;99204.91;5092653;28;20437;-69
2021/12/26 03:28:08;;;;;;;107.37;59.23;;;;;;;2.30;92.08;99214.59;5092736;28;20437;-69
2021/12/26 03:30:35;;;;;;;106.87;58.30;;;;;;;2.24;92.92;99209.13;5093823;28;20441;-69
2021/12/26 03:33:05;;;;;;;107.73;56.73;;;;;;;2.24;93.95;99215.16;5092596;28;20494;-69
2021/12/26 03:35:33;;;;;;;106.03;58.60;;;;;;;2.34;94.67;99217.72;5092872;28;20441;-70
2021/12/26 03:38:00;;;;;;;108.30;59.70;;;;;;;2.42;93.11;99207.31;5092446;28;20428;-70
2021/12/26 03:40:27;;;;;;;106.90;56.23;;;;;;;2.45;92.54;99213.06;5093127;28;20487;-69
2021/12/26 03:42:54;;;;;;;107.23;58.17;;;;;;;2.41;92.14;99216.94;5092377;28;21064;-69
2021/12/26 03:45:23;;;;;;;105.00;55.67;;;;;;;2.26;91.44;99213.25;5093562;28;20433;-70
2021/12/26 03:47:50;;;;;;;91.47;52.87;;;;;;;2.22;91.97;99211.88;5092658;28;20919;-70
2021/12/26 03:50:19;;;;;;;94.63;52.37;;;;;;;2.27;93.24;99219.28;5092716;28;20440;-70
2021/12/26 03:52:46;;;;;;;100.30;54.83;;;;;;;2.36;93.71;99226.22;5092526;28;20495;-70
2021/12/26 03:55:13;;;;;;;97.00;54.30;;;;;;;2.41;93.00;99222.19;5092705;28;20514;-70
2021/12/26 03:57:40;;;;;;;98.63;55.00;;;;;;;2.43;91.69;99220.25;5092387;28;20433;-70
2021/12/26 04:00:09;;;;;;;101.37;57.40;;;;;;;2.49;91.99;99222.25;5092033;28;21013;-70
2021/12/26 04:02:37;;;;;;;100.70;54.43;;;;;;;2.55;91.29;99229.53;5092034;28;20437;-70
2021/12/26 04:05:04;;;;;;;95.37;53.70;;;;;;;2.59;91.68;99236.13;5093295;28;20429;-69
2021/12/26 04:07:31;;;;;;;92.83;52.10;;;;;;;2.46;90.96;99234.84;5092197;28;20612;-69
2021/12/26 04:09:57;;;;;;;98.80;54.03;;;;;;;2.35;90.95;99232.44;5092292;28;21065;-68
2021/12/26 04:12:25;;;;;;;92.10;52.77;;;;;;;2.33;92.23;99239.66;5092077;28;20441;-69
2021/12/26 04:14:52;;;;;;;97.20;53.57;;;;;;;2.35;92.84;99243.78;5092920;28;20429;-69
2021/12/26 04:17:19;;;;;;;96.33;53.43;;;;;;;2.33;91.88;99240.47;5092336;28;20445;-69
2021/12/26 04:19:47;;;;;;;94.57;54.33;;;;;;;2.22;92.15;99232.00;5091924;28;20441;-69
2021/12/26 04:22:13;;;;;;;102.40;55.50;;;;;;;2.21;92.46;99233.81;5092307;28;20495;-69
2021/12/26 04:24:40;;;;;;;98.77;54.50;;;;;;;2.17;92.63;99239.50;5092428;28;20429;-69
2021/12/26 04:27:07;;;;;;;101.53;55.60;;;;;;;2.18;93.81;99239.34;5091775;28;20593;-69
2021/12/26 04:29:34;;;;;;;91.77;52.60;;;;;;;2.23;93.62;99238.91;5091927;28;20441;-69
2021/12/26 04:32:00;;;;;;;98.60;53.80;;;;;;;2.25;92.50;99237.78;5092358;28;20801;-69
2021/12/26 04:34:27;;;;;;;100.87;52.27;;;;;;;2.30;92.48;99240.78;5092057;28;20544;-69
2021/12/26 04:36:55;;;;;;;97.03;52.53;;;;;;;2.35;92.97;99243.78;5092140;28;20854;-69
2021/12/26 04:39:22;;;;;;;97.97;53.20;;;;;;;2.37;92.65;99247.06;5091699;28;20927;-70
2021/12/26 04:41:48;;;;;;;101.00;51.23;;;;;;;2.38;92.78;99243.47;5092115;28;20437;-69
2021/12/26 04:44:15;;;;;;;89.60;49.13;;;;;;;2.42;91.98;99244.81;5091885;28;20490;-69
2021/12/26 04:46:42;;;;;;;92.90;51.73;;;;;;;2.36;92.86;99244.56;5092260;28;20480;-70
2021/12/26 04:49:08;;;;;;;92.60;52.50;;;;;;;2.20;92.92;99240.03;5091924;28;20433;-70
2021/12/26 04:51:35;;;;;;;93.10;51.93;;;;;;;2.23;93.75;99244.97;5091417;28;20493;-69
2021/12/26 04:54:03;;;;;;;103.23;57.27;;;;;;;2.18;93.52;99243.75;5092014;28;20495;-69
2021/12/26 04:56:30;;;;;;;99.70;54.77;;;;;;;2.15;92.88;99246.69;5091588;28;20936;-69
2021/12/26 04:58:57;;;;;;;101.53;55.37;;;;;;;2.11;92.42;99246.16;5091992;28;20432;-69
2021/12/26 05:01:23;;;;;;;95.97;54.03;;;;;;;2.04;93.78;99242.47;5091608;28;20437;-69
2021/12/26 05:03:50;;;;;;;102.37;55.67;;;;;;;2.06;93.96;99243.16;5091937;28;20437;-69
2021/12/26 05:06:17;;;;;;;99.20;55.73;;;;;;;1.92;93.42;99246.28;5092067;28;20433;-69
2021/12/26 05:08:44;;;;;;;91.43;51.97;;;;;;;2.00;93.87;99240.31;5091658;28;20491;-69
2021/12/26 05:11:12;;;;;;;106.60;57.03;;;;;;;1.93;93.54;99242.72;5091587;28;20433;-69
2021/12/26 05:13:38;;;;;;;99.73;54.97;;;;;;;1.83;93.94;99247.16;5094422;28;20853;-69
2021/12/26 05:16:05;;;;;;;106.37;54.97;;;;;;;1.95;93.49;99229.44;5094859;28;20448;-70
2021/12/26 05:18:32;;;;;;;111.20;56.97;;;;;;;1.93;93.84;99234.03;5095224;28;20433;-70
2021/12/26 05:20:59;;;;;;;103.10;55.27;;;;;;;1.96;93.70;99241.59;5094954;28;20509;-69
2021/12/26 05:23:25;;;;;;;105.20;54.00;;;;;;;2.06;94.68;99227.47;5095041;28;20501;-70
2021/12/26 05:25:52;;;;;;;103.60;55.77;;;;;;;2.14;93.38;99235.41;5094640;28;21025;-69
2021/12/26 05:28:20;;;;;;;99.60;53.63;;;;;;;2.23;93.27;99233.66;5094451;28;20964;-69
2021/12/26 05:30:47;;;;;;;96.63;51.63;;;;;;;2.31;93.88;99234.56;5094582;28;20433;-69
2021/12/26 05:33:14;;;;;;;99.83;53.73;;;;;;;2.34;92.44;99231.66;5094490;28;20437;-69
2021/12/26 05:35:41;;;;;;;96.10;52.27;;;;;;;2.39;92.66;99239.88;5094660;28;21018;-69
2021/12/26 05:38:08;;;;;;;98.83;56.00;;;;;;;2.35;92.40;99221.97;5094929;28;20510;-68
2021/12/26 05:40:35;;;;;;;237.63;121.67;;;;;;;2.30;92.58;99235.53;5094697;28;20441;-70
2021/12/26 05:43:02;;;;;;;136.10;72.30;;;;;;;2.28;92.73;99240.09;5094649;28;20437;-70
2021/12/26 05:45:30;;;;;;;188.93;102.03;;;;;;;2.36;92.97;99245.41;5094065;28;20486;-69
2021/12/26 05:47:57;;;;;;;160.33;89.83;;;;;;;2.35;92.86;99249.00;5094601;28;20526;-70
2021/12/26 05:50:24;;;;;;;118.47;66.73;;;;;;;2.37;93.16;99256.72;5095266;28;20441;-69
2021/12/26 05:52:51;;;;;;;101.73;58.43;;;;;;;2.25;92.43;99252.69;5094463;28;20442;-69
2021/12/26 05:55:18;;;;;;;92.63;53.47;;;;;;;2.24;94.12;99246.59;5094756;28;20441;-70
2021/12/26 05:57:44;;;;;;;92.27;53.17;;;;;;;2.35;93.35;99259.50;5094351;28;20494;-70
2021/12/26 06:00:14;;;;;;;98.67;54.77;;;;;;;2.44;93.25;99263.84;5093790;28;20498;-69
2021/12/26 06:02:43;;;;;;;103.47;53.33;;;;;;;2.50;93.11;99260.63;5094467;28;20437;-69
2021/12/26 06:05:10;;;;;;;90.63;49.50;;;;;;;2.54;92.42;99264.59;5094101;28;20433;-70
2021/12/26 06:07:37;;;;;;;91.60;48.57;;;;;;;2.46;92.39;99261.91;5094146;28;20477;-70
2021/12/26 06:10:05;;;;;;;78.20;46.67;;;;;;;2.39;92.97;99260.00;5094674;28;20473;-69
2021/12/26 06:12:32;;;;;;;83.03;47.33;;;;;;;2.42;93.18;99272.81;5093875;28;20437;-71
2021/12/26 06:14:58;;;;;;;90.20;51.90;;;;;;;2.37;92.59;99272.44;5094351;28;20509;-71
2021/12/26 06:17:25;;;;;;;97.87;52.90;;;;;;;2.39;94.53;99280.97;5093754;28;20823;-71
2021/12/26 06:19:53;;;;;;;95.33;50.37;;;;;;;2.35;93.68;99277.84;5094005;28;20441;-73
2021/12/26 06:22:20;;;;;;;94.63;51.93;;;;;;;2.44;94.39;99276.94;5094263;28;20437;-71
2021/12/26 06:24:47;;;;;;;86.63;49.03;;;;;;;2.55;93.55;99268.84;5093553;28;20513;-72
2021/12/26 06:27:13;;;;;;;93.93;51.17;;;;;;;2.50;93.10;99284.22;5094071;28;20477;-70
2021/12/26 06:29:40;;;;;;;105.73;52.90;;;;;;;2.77;98.23;99283.28;5093807;28;20437;-70
2021/12/26 06:32:08;;;;;;;88.87;52.23;;;;;;;2.84;94.82;99300.88;5094015;28;20445;-69
2021/12/26 06:34:34;;;;;;;93.00;50.07;;;;;;;2.80;93.09;99302.16;5093714;28;20862;-69
2021/12/26 06:37:03;;;;;;;84.27;46.80;;;;;;;2.74;92.60;99297.50;5093961;28;20478;-69
2021/12/26 06:39:30;;;;;;;80.10;44.30;;;;;;;2.61;93.53;99264.81;5093973;28;20498;-68
2021/12/26 06:41:57;;;;;;;76.77;44.00;;;;;;;2.68;92.91;99286.81;5093948;28;20449;-67
2021/12/26 06:44:24;;;;;;;79.00;44.87;;;;;;;2.81;93.41;99288.06;5093213;28;20433;-68
2021/12/26 06:46:51;;;;;;;76.77;44.67;;;;;;;2.84;91.67;99277.28;5093138;28;20437;-62
2021/12/26 06:49:18;;;;;;;78.50;45.87;;;;;;;2.83;92.14;99277.44;5093122;28;20494;-63
2021/12/26 06:51:45;;;;;;;73.40;44.03;;;;;;;2.78;92.30;99280.50;5093093;28;20936;-62
2021/12/26 06:54:14;;;;;;;77.53;44.07;;;;;;;2.74;92.22;99287.00;5092972;28;20520;-64
2021/12/26 06:56:40;;;;;;;81.87;47.07;;;;;;;2.72;92.32;99286.34;5093212;28;21013;-64
2021/12/26 06:59:07;;;;;;;77.53;45.00;;;;;;;2.67;91.91;99286.00;5092843;28;20441;-64
2021/12/26 07:01:35;;;;;;;85.23;48.03;;;;;;;2.85;93.43;99285.94;5091789;28;20528;-62
2021/12/26 07:04:02;;;;;;;86.47;46.53;;;;;;;2.98;92.84;99286.41;5079666;28;20510;-62
2021/12/26 07:06:28;;;;;;;86.60;45.93;;;;;;;3.10;92.50;99288.59;5086905;28;20438;-62
2021/12/26 07:08:55;;;;;;;77.33;43.53;;;;;;;3.09;92.02;99297.47;5072267;28;20531;-62
2021/12/26 07:11:23;;;;;;;73.17;46.40;;;;;;;3.14;91.33;99289.94;5082943;28;20526;-63
2021/12/26 07:13:50;;;;;;;71.17;43.10;;;;;;;3.31;90.78;99304.00;5092338;28;20940;-63
2021/12/26 07:16:17;;;;;;;75.00;43.30;;;;;;;3.25;90.25;99302.81;5093132;28;20429;-63
2021/12/26 07:18:43;;;;;;;79.43;44.17;;;;;;;3.30;91.50;99311.03;5090950;28;20502;-63
2021/12/26 07:21:10;;;;;;;82.13;46.93;;;;;;;3.34;91.33;99307.13;5083385;28;21033;-64
2021/12/26 07:23:37;;;;;;;91.70;48.33;;;;;;;3.41;91.60;99297.66;5091174;28;20633;-63
2021/12/26 07:26:03;;;;;;;83.30;47.23;;;;;;;3.56;90.25;99300.53;5091215;28;20553;-63
2021/12/26 07:28:31;;;;;;;79.23;41.80;;;;;;;3.59;89.75;99306.28;5091901;28;20534;-64
2021/12/26 07:30:58;;;;;;;71.03;41.50;;;;;;;3.55;89.95;99304.94;5092182;28;20459;-64
2021/12/26 07:33:25;;;;;;;75.33;41.77;;;;;;;3.52;90.98;99307.88;5091903;28;20433;-64
2021/12/26 07:35:52;;;;;;;62.73;40.70;;;;;;;3.51;89.95;99308.06;5088525;28;20492;-64
2021/12/26 07:38:19;;;;;;;72.20;43.57;;;;;;;3.28;90.36;99272.81;5069771;28;21054;-64
2021/12/26 07:40:46;;;;;;;71.10;43.77;;;;;;;3.46;90.74;99303.28;5069215;28;20517;-64
2021/12/26 07:43:13;;;;;;;66.43;44.37;;;;;;;3.36;91.30;99310.44;5069749;28;20476;-64
2021/12/26 07:45:41;;;;;;;70.00;41.67;;;;;;;3.34;91.08;99311.53;5070111;28;20445;-64
2021/12/26 07:48:08;;;;;;;73.53;42.30;;;;;;;3.31;91.45;99315.31;5069462;28;20474;-63
2021/12/26 07:50:34;;;;;;;71.83;42.27;;;;;;;3.36;91.56;99305.19;5069949;28;20507;-64
2021/12/26 07:53:06;;;;;;;71.33;43.07;;;;;;;3.49;91.83;99313.47;5069963;28;20442;-63
2021/12/26 07:55:33;;;;;;;76.47;47.20;;;;;;;3.44;91.32;99314.91;5071937;28;20438;-62
2021/12/26 07:58:00;;;;;;;83.47;47.67;;;;;;;3.51;91.82;99313.31;5071325;28;20438;-63
2021/12/26 08:00:27;;;;;;;69.37;46.40;;;;;;;3.42;91.65;99315.06;5070574;28;21008;-64
2021/12/26 08:02:56;;;;;;;73.63;44.13;;;;;;;3.46;93.41;99308.50;5070921;28;20449;-63
2021/12/26 08:05:23;;;;;;;82.07;46.47;;;;;;;3.57;92.19;99303.00;5070942;28;20491;-63
2021/12/26 08:07:49;;;;;;;76.10;45.23;;;;;;;3.73;92.44;99307.50;5071538;28;20481;-63
2021/12/26 08:10:16;;;;;;;73.60;44.77;;;;;;;3.88;91.62;99301.50;5075298;28;20522;-63
2021/12/26 08:12:43;;;;;;;72.23;44.77;;;;;;;4.02;91.85;99300.91;5091098;28;20437;-64
2021/12/26 08:15:10;;;;;;;69.23;42.97;;;;;;;4.13;90.96;99300.59;5091697;28;20862;-63
2021/12/26 08:17:38;;;;;;;74.07;44.77;;;;;;;4.31;90.56;99298.69;5091116;28;20199;-63
2021/12/26 08:20:08;;;;;;;72.03;43.27;;;;;;;4.45;89.93;99295.41;5092191;28;20437;-64
2021/12/26 08:22:35;;;;;;;69.80;40.80;;;;;;;4.52;89.33;99296.41;5090679;28;20248;-62
2021/12/26 08:25:02;;;;;;;65.23;41.97;;;;;;;4.56;88.40;99291.63;5091218;28;20191;-63
2021/12/26 08:27:29;;;;;;;64.37;41.37;;;;;;;4.70;88.46;99281.28;5091260;28;20276;-62
2021/12/26 08:29:56;;;;;;;59.07;38.90;;;;;;;4.80;88.12;99283.75;5091449;28;20195;-62
2021/12/26 08:32:22;;;;;;;65.40;39.33;;;;;;;4.87;87.41;99290.81;5091811;28;20624;-62
2021/12/26 08:34:49;;;;;;;63.47;39.20;;;;;;;4.96;87.11;99284.59;5090786;28;20558;-64
2021/12/26 08:37:17;;;;;;;57.53;35.93;;;;;;;5.02;87.00;99281.28;5091350;28;20198;-64
2021/12/26 08:39:46;;;;;;;57.40;37.93;;;;;;;5.14;86.40;99277.31;5091202;28;20200;-63
2021/12/26 08:42:14;;;;;;;53.87;36.97;;;;;;;5.22;86.22;99274.69;5090809;28;20191;-63
2021/12/26 08:44:41;;;;;;;61.87;40.10;;;;;;;5.33;84.99;99274.34;5091344;28;20187;-63
2021/12/26 08:47:10;;;;;;;63.30;39.57;;;;;;;5.38;84.86;99274.66;5092660;28;20626;-63
2021/12/26 08:49:37;;;;;;;66.23;39.97;;;;;;;5.39;85.04;99276.28;5095374;28;20222;-64
2021/12/26 08:52:06;;;;;;;59.90;40.43;;;;;;;5.37;84.63;99266.91;5095002;28;20344;-63
2021/12/26 08:54:34;;;;;;;62.60;39.90;;;;;;;5.25;84.25;99255.09;5094886;28;20294;-64
2021/12/26 08:57:02;;;;;;;67.70;41.23;;;;;;;5.52;84.09;99286.31;5095178;28;20198;-62
2021/12/26 08:59:30;;;;;;;64.53;40.73;;;;;;;5.57;84.82;99292.69;5095464;28;20206;-63
2021/12/26 09:01:59;;;;;;;68.83;43.10;;;;;;;5.63;84.20;99278.84;5094823;28;20582;-63
2021/12/26 09:04:25;;;;;;;70.40;40.90;;;;;;;5.70;84.08;99277.19;5094792;28;20606;-63
2021/12/26 09:06:53;;;;;;;60.73;36.97;;;;;;;5.72;84.35;99282.28;5094820;28;20248;-63
2021/12/26 09:09:19;;;;;;;48.10;31.30;;;;;;;5.73;83.65;99284.72;5094538;28;20291;-64
2021/12/26 09:11:48;;;;;;;46.40;30.00;;;;;;;5.69;83.58;99290.53;5077896;28;20199;-63
2021/12/26 09:14:15;;;;;;;44.50;30.30;;;;;;;5.67;83.14;99284.59;5074828;28;20640;-63
2021/12/26 09:16:42;;;;;;;37.50;25.03;;;;;;;5.71;82.56;99281.44;5074573;28;20664;-63
2021/12/26 09:19:09;;;;;;;32.40;21.63;;;;;;;5.70;83.25;99300.06;5074363;28;20226;-63
2021/12/26 09:21:36;;;;;;;27.10;21.57;;;;;;;5.74;82.96;99294.28;5074601;28;20196;-64
2021/12/26 09:24:04;;;;;;;28.33;21.57;;;;;;;5.81;83.15;99281.28;5074886;28;20283;-63
2021/12/26 09:26:31;;;;;;;27.73;21.07;;;;;;;5.88;82.60;99279.59;5074328;28;20200;-64
2021/12/26 09:28:59;;;;;;;41.23;24.60;;;;;;;5.96;82.65;99274.28;5074124;28;20273;-63
2021/12/26 09:31:26;;;;;;;32.83;24.10;;;;;;;6.09;82.21;99284.28;5074304;28;20249;-64
2021/12/26 09:33:53;;;;;;;29.50;22.53;;;;;;;6.18;82.31;99285.88;5074186;28;20257;-63
2021/12/26 09:36:20;;;;;;;37.20;25.30;;;;;;;6.23;81.87;99280.91;5073429;28;20686;-63
2021/12/26 09:38:47;;;;;;;32.77;22.70;;;;;;;6.32;81.87;99279.88;5073771;28;20348;-63
2021/12/26 09:41:13;;;;;;;36.07;22.67;;;;;;;6.41;81.39;99286.75;5073543;28;20188;-65
2021/12/26 09:43:40;;;;;;;43.03;28.70;;;;;;;6.44;80.56;99281.09;5073379;28;20257;-64
2021/12/26 09:46:10;;;;;;;57.33;34.03;;;;;;;6.59;81.09;99277.53;5073513;28;20916;-64
2021/12/26 09:48:37;;;;;;;34.13;24.97;;;;;;;6.77;80.40;99279.91;5073768;28;20790;-64
2021/12/26 09:51:04;;;;;;;38.80;30.60;;;;;;;6.87;80.31;99280.47;5073626;28;20192;-63
2021/12/26 09:53:37;;;;;;;40.07;27.63;;;;;;;6.90;79.18;99282.75;5073385;28;20195;-63
2021/12/26 09:56:06;;;;;;;35.57;25.67;;;;;;;6.98;78.67;99274.75;5073485;28;20193;-63
2021/12/26 09:58:32;;;;;;;37.33;27.33;;;;;;;7.09;79.02;99274.31;5072973;28;20270;-63
2021/12/26 10:00:59;;;;;;;37.83;26.57;;;;;;;7.23;78.24;99273.53;5073393;28;20242;-63
2021/12/26 10:03:33;;;;;;;32.90;23.73;;;;;;;7.25;78.33;99256.50;5073652;28;20192;-63
2021/12/26 10:06:05;;;;;;;33.80;23.80;;;;;;;7.36;77.41;99265.81;5073726;28;20188;-65
2021/12/26 10:08:35;;;;;;;26.70;21.80;;;;;;;7.41;77.19;99263.44;5074057;28;20212;-64
2021/12/26 10:11:20;;;;;;;32.43;24.43;;;;;;;7.45;77.09;99264.72;5084168;28;20284;-65
2021/12/26 10:13:49;;;;;;;30.70;23.57;;;;;;;7.52;75.76;99260.34;5093055;28;20187;-63
2021/12/26 10:16:18;;;;;;;33.83;22.63;;;;;;;7.51;76.11;99250.78;5094099;28;20191;-64
2021/12/26 10:18:47;;;;;;;32.97;23.43;;;;;;;7.57;76.05;99247.41;5093745;28;20562;-63
2021/12/26 10:21:36;;;;;;;34.30;23.73;;;;;;;7.59;76.26;99250.69;5093936;28;20198;-64
2021/12/26 10:24:06;;;;;;;33.47;23.70;;;;;;;7.66;76.04;99256.88;5089376;28;20809;-64
2021/12/26 10:26:35;;;;;;;34.77;24.57;;;;;;;7.67;75.26;99259.34;5093483;28;20185;-63
2021/12/26 10:29:21;;;;;;;32.50;24.33;;;;;;;7.71;75.65;99259.78;5093869;28;20267;-64
2021/12/26 10:31:58;;;;;;;32.83;25.00;;;;;;;7.84;76.06;99257.31;5093556;28;20187;-63
2021/12/26 10:34:28;;;;;;;37.83;27.40;;;;;;;7.90;74.67;99246.00;5093450;28;20643;-63
2021/12/26 10:36:56;;;;;;;37.73;26.63;;;;;;;7.97;74.72;99252.19;5093489;28;20234;-63
2021/12/26 10:39:25;;;;;;;33.77;25.27;;;;;;;8.06;74.22;99243.13;5093318;28;20248;-64
2021/12/26 10:41:54;;;;;;;39.27;29.67;;;;;;;8.15;74.04;99248.13;5093383;28;20244;-63
2021/12/26 10:44:33;;;;;;;40.73;29.93;;;;;;;8.19;72.72;99243.28;5093134;28;20264;-64
2021/12/26 10:47:05;;;;;;;42.40;30.20;;;;;;;8.26;74.04;99250.34;5093321;28;20188;-65
2021/12/26 10:49:43;;;;;;;44.37;29.77;;;;;;;8.26;73.01;99241.56;5093116;28;20752;-64
2021/12/26 10:52:13;;;;;;;43.57;29.77;;;;;;;8.31;73.42;99249.75;5093565;28;20228;-64
2021/12/26 10:54:43;;;;;;;41.57;29.87;;;;;;;8.35;72.87;99245.72;5093611;28;20248;-64
2021/12/26 10:57:14;;;;;;;49.87;33.97;;;;;;;8.33;72.42;99253.06;5093417;28;20183;-63
2021/12/26 10:59:43;;;;;;;51.83;34.03;;;;;;;8.39;73.17;99250.47;5092702;28;20723;-65
2021/12/26 11:02:20;;;;;;;66.17;44.60;;;;;;;8.38;72.94;99253.31;5092900;28;20244;-64
2021/12/26 11:04:58;;;;;;;57.70;42.17;;;;;;;8.27;73.50;99244.03;5092748;28;20229;-63
2021/12/26 11:07:24;;;;;;;59.00;40.47;;;;;;;8.21;73.40;99236.03;5094166;28;20187;-64
2021/12/26 11:10:03;;;;;;;51.23;36.87;;;;;;;8.22;74.24;99227.91;5091795;28;20284;-64
2021/12/26 11:12:38;;;;;;;54.73;36.30;;;;;;;8.35;74.54;99229.84;5072080;28;20196;-64
2021/12/26 11:15:06;;;;;;;49.73;34.43;;;;;;;8.38;73.85;99227.66;5072754;28;20183;-64
2021/12/26 11:17:35;;;;;;;58.20;36.77;;;;;;;8.42;74.63;99230.75;5072648;28;20196;-63
2021/12/26 11:20:05;;;;;;;59.40;36.20;;;;;;;8.44;73.32;99216.31;5072547;28;20622;-63
2021/12/26 11:22:31;;;;;;;70.33;40.80;;;;;;;8.30;74.13;99221.66;5073343;28;20249;-65
2021/12/26 11:24:58;;;;;;;59.23;38.70;;;;;;;8.16;nan;99219.84;5071928;28;20745;-63
2021/12/26 11:27:26;;;;;;;60.27;37.47;;;;;;;8.18;74.57;99223.97;5072585;28;20188;-63